createdAt,value
2022-10-23T00:01:36.343Z,13.60
2022-10-23T00:04:06.940Z,13.50
2022-10-23T00:06:35.194Z,13.50
2022-10-23T00:09:04.054Z,13.50
2022-10-23T00:11:32.322Z,13.40
2022-10-23T00:14:01.925Z,13.40
2022-10-23T00:16:30.593Z,13.40
2022-10-23T00:18:58.393Z,13.40
2022-10-23T00:21:26.119Z,13.30
2022-10-23T00:23:53.828Z,13.30
2022-10-23T00:26:22.348Z,13.30
2022-10-23T00:28:52.357Z,13.20
2022-10-23T00:31:21.254Z,13.20
2022-10-23T00:33:48.782Z,13.10
2022-10-23T00:36:18.157Z,13.10
2022-10-23T00:38:45.985Z,13.10
2022-10-23T00:41:20.422Z,13.00
2022-10-23T00:44:05.177Z,13.00
2022-10-23T00:46:33.119Z,13.00
2022-10-23T00:49:01.185Z,12.90
2022-10-23T00:51:34.160Z,12.90
2022-10-23T00:56:55.219Z,12.80
2022-10-23T00:59:22.768Z,12.80
2022-10-23T01:01:50.084Z,12.80
2022-10-23T01:04:17.704Z,12.80
2022-10-23T01:07:00.135Z,12.70
2022-10-23T01:09:31.768Z,12.70
2022-10-23T01:12:03.947Z,12.70
2022-10-23T01:15:06.330Z,12.60
2022-10-23T01:17:44.573Z,12.50
2022-10-23T01:20:40.909Z,12.50
2022-10-23T01:23:11.519Z,12.50
2022-10-23T01:25:49.672Z,12.50
2022-10-23T01:28:29.227Z,12.50
2022-10-23T01:30:58.605Z,12.40
2022-10-23T01:33:33.633Z,12.40
2022-10-23T01:36:07.246Z,12.40
2022-10-23T01:38:43.435Z,12.40
2022-10-23T01:41:18.236Z,12.30
2022-10-23T01:43:57.106Z,12.30
2022-10-23T01:46:26.976Z,12.30
2022-10-23T01:48:56.490Z,12.30
2022-10-23T01:51:27.578Z,12.30
2022-10-23T01:53:59.871Z,12.20
2022-10-23T01:56:32.369Z,12.20
2022-10-23T01:59:05.342Z,12.20
2022-10-23T02:01:35.249Z,12.20
2022-10-23T02:04:05.923Z,12.10
2022-10-23T02:06:33.363Z,12.10
2022-10-23T02:09:00.786Z,12.10
2022-10-23T02:11:28.463Z,12.10
2022-10-23T02:14:13.574Z,12.00
2022-10-23T02:16:52.090Z,12.00
2022-10-23T02:19:43.329Z,12.00
2022-10-23T02:22:24.144Z,12.00
2022-10-23T02:25:00.134Z,12.00
2022-10-23T02:27:42.638Z,12.00
2022-10-23T02:30:13.380Z,11.90
2022-10-23T02:32:45.729Z,11.90
2022-10-23T02:35:14.226Z,11.90
2022-10-23T02:37:42.980Z,11.80
2022-10-23T02:40:11.672Z,11.80
2022-10-23T02:42:48.615Z,11.80
2022-10-23T02:45:31.595Z,11.80
2022-10-23T02:48:07.247Z,11.80
2022-10-23T02:51:10.492Z,11.70
2022-10-23T02:54:03.229Z,11.70
2022-10-23T02:56:44.911Z,11.70
2022-10-23T02:59:43.097Z,11.70
2022-10-23T03:02:23.218Z,11.60
2022-10-23T03:04:52.831Z,11.60
2022-10-23T03:07:21.137Z,11.60
2022-10-23T03:09:48.690Z,11.60
2022-10-23T03:12:15.963Z,11.50
2022-10-23T03:14:43.100Z,11.50
2022-10-23T03:17:11.327Z,11.50
2022-10-23T03:19:38.414Z,11.50
2022-10-23T03:22:06.143Z,11.40
2022-10-23T03:24:33.511Z,11.40
2022-10-23T03:27:00.942Z,11.40
2022-10-23T03:29:28.044Z,11.30
2022-10-23T03:31:56.182Z,11.30
2022-10-23T03:34:24.221Z,11.30
2022-10-23T03:36:51.467Z,11.30
2022-10-23T03:39:18.801Z,11.20
2022-10-23T03:41:45.923Z,11.20
2022-10-23T03:44:13.668Z,11.20
2022-10-23T03:46:41.116Z,11.20
2022-10-23T03:49:08.756Z,11.10
2022-10-23T03:51:36.129Z,11.10
2022-10-23T03:54:03.745Z,11.10
2022-10-23T03:56:31.083Z,11.00
2022-10-23T03:58:58.313Z,11.00
2022-10-23T04:01:25.795Z,11.00
2022-10-23T04:03:55.846Z,10.90
2022-10-23T04:06:23.072Z,10.90
2022-10-23T04:08:50.241Z,10.90
2022-10-23T04:11:17.281Z,10.90
2022-10-23T04:13:44.359Z,10.80
2022-10-23T04:16:11.516Z,10.80
2022-10-23T04:18:42.236Z,10.80
2022-10-23T04:21:09.787Z,10.70
2022-10-23T04:23:37.178Z,10.80
2022-10-23T04:26:05.008Z,10.70
2022-10-23T04:28:32.070Z,10.70
2022-10-23T04:30:59.528Z,10.70
2022-10-23T04:33:26.878Z,10.60
2022-10-23T04:35:54.115Z,10.60
2022-10-23T04:38:21.581Z,10.60
2022-10-23T04:40:48.670Z,10.60
2022-10-23T04:43:16.023Z,10.60
2022-10-23T04:45:43.294Z,10.60
2022-10-23T04:48:10.402Z,10.60
2022-10-23T04:50:37.949Z,10.60
2022-10-23T04:53:10.091Z,10.60
2022-10-23T04:55:37.347Z,10.50
2022-10-23T04:58:04.798Z,10.50
2022-10-23T05:00:32.032Z,10.40
2022-10-23T05:02:59.453Z,10.50
2022-10-23T05:05:26.610Z,10.40
2022-10-23T05:07:53.715Z,10.30
2022-10-23T05:10:21.195Z,10.30
2022-10-23T05:12:48.311Z,10.30
2022-10-23T05:15:15.685Z,10.20
2022-10-23T05:17:46.145Z,10.30
2022-10-23T05:20:18.934Z,10.20
2022-10-23T05:22:49.107Z,10.20
2022-10-23T05:25:17.256Z,10.20
2022-10-23T05:27:44.835Z,10.20
2022-10-23T05:30:12.868Z,10.20
2022-10-23T05:32:40.929Z,10.20
2022-10-23T05:35:13.849Z,10.20
2022-10-23T05:37:43.994Z,10.20
2022-10-23T05:40:12.179Z,10.10
2022-10-23T05:42:41.595Z,10.10
2022-10-23T05:45:18.621Z,10.10
2022-10-23T05:47:46.578Z,10.10
2022-10-23T05:50:14.113Z,10.00
2022-10-23T05:52:41.782Z,10.10
2022-10-23T05:55:09.595Z,10.00
2022-10-23T05:57:37.058Z,10.00
2022-10-23T06:00:05.660Z,10.00
2022-10-23T06:02:33.719Z,10.00
2022-10-23T06:05:01.222Z,10.00
2022-10-23T06:07:32.469Z,10.00
2022-10-23T06:10:02.416Z,10.00
2022-10-23T06:12:29.719Z,10.00
2022-10-23T06:14:57.112Z,9.90
2022-10-23T06:17:24.252Z,9.90
2022-10-23T06:19:51.418Z,9.90
2022-10-23T06:24:51.012Z,9.90
2022-10-23T06:27:18.544Z,9.90
2022-10-23T06:29:45.788Z,9.90
2022-10-23T06:32:13.368Z,9.90
2022-10-23T06:34:40.777Z,9.90
2022-10-23T06:37:08.223Z,9.90
2022-10-23T06:39:37.015Z,9.90
2022-10-23T06:42:04.653Z,9.90
2022-10-23T06:44:31.816Z,9.90
2022-10-23T06:47:00.597Z,9.90
2022-10-23T06:49:30.006Z,9.90
2022-10-23T06:51:57.382Z,9.90
2022-10-23T06:54:24.738Z,9.90
2022-10-23T06:56:52.237Z,9.80
2022-10-23T06:59:19.867Z,9.90
2022-10-23T07:01:47.465Z,9.90
2022-10-23T07:04:14.923Z,9.90
2022-10-23T07:06:43.017Z,9.90
2022-10-23T07:09:10.210Z,9.90
2022-10-23T07:11:38.235Z,9.90
2022-10-23T07:14:05.370Z,9.90
2022-10-23T07:16:33.127Z,9.90
2022-10-23T07:19:01.471Z,9.90
2022-10-23T07:21:36.120Z,10.00
2022-10-23T07:24:03.656Z,10.00
2022-10-23T07:26:33.217Z,10.00
2022-10-23T07:29:01.507Z,10.00
2022-10-23T07:31:29.343Z,10.00
2022-10-23T07:33:56.575Z,10.10
2022-10-23T07:36:23.598Z,10.10
2022-10-23T07:38:51.833Z,10.20
2022-10-23T07:41:19.285Z,10.20
2022-10-23T07:43:47.170Z,10.20
2022-10-23T07:46:14.286Z,10.20
2022-10-23T07:48:41.782Z,10.30
2022-10-23T07:51:13.561Z,10.30
2022-10-23T07:53:41.352Z,10.30
2022-10-23T07:56:17.616Z,10.40
2022-10-23T07:58:45.337Z,10.40
2022-10-23T08:01:24.042Z,10.40
2022-10-23T08:03:51.226Z,10.50
2022-10-23T08:06:18.352Z,10.50
2022-10-23T08:11:25.116Z,10.60
2022-10-23T08:13:57.444Z,10.60
2022-10-23T08:16:25.116Z,10.70
2022-10-23T08:18:52.457Z,10.70
2022-10-23T08:21:20.125Z,10.70
2022-10-23T08:23:47.340Z,10.80
2022-10-23T08:26:14.965Z,10.80
2022-10-23T08:28:42.414Z,10.90
2022-10-23T08:31:18.682Z,11.00
2022-10-23T08:33:46.443Z,11.00
2022-10-23T08:36:33.119Z,11.10
2022-10-23T08:39:00.311Z,11.10
2022-10-23T08:41:39.371Z,11.20
2022-10-23T08:44:13.019Z,11.30
2022-10-23T08:46:50.084Z,11.30
2022-10-23T08:49:23.349Z,11.40
2022-10-23T08:51:54.722Z,11.50
2022-10-23T08:54:58.118Z,11.60
2022-10-23T08:57:38.837Z,11.70
2022-10-23T09:00:13.601Z,11.80
2022-10-23T09:02:47.083Z,11.90
2022-10-23T09:05:27.672Z,12.00
2022-10-23T09:08:22.754Z,12.10
2022-10-23T09:11:03.848Z,12.20
2022-10-23T09:13:40.348Z,12.30
2022-10-23T09:16:17.916Z,12.40
2022-10-23T09:18:49.642Z,12.40
2022-10-23T09:21:20.556Z,12.60
2022-10-23T09:23:47.814Z,12.60
2022-10-23T09:26:17.258Z,12.80
2022-10-23T09:29:02.713Z,12.90
2022-10-23T09:31:29.979Z,13.00
2022-10-23T09:34:00.018Z,13.10
2022-10-23T09:36:29.598Z,13.10
2022-10-23T09:39:00.781Z,13.20
2022-10-23T09:41:34.090Z,13.30
2022-10-23T09:44:20.335Z,13.40
2022-10-23T09:49:25.499Z,13.50
2022-10-23T09:52:11.031Z,13.60
2022-10-23T09:54:51.004Z,13.70
2022-10-23T09:57:40.964Z,13.80
2022-10-23T10:00:17.054Z,13.90
2022-10-23T10:03:15.658Z,14.00
2022-10-23T10:05:44.097Z,14.00
2022-10-23T10:08:26.514Z,14.10
2022-10-23T10:11:20.524Z,14.10
2022-10-23T10:14:24.780Z,14.20
2022-10-23T10:16:57.718Z,14.30
2022-10-23T10:19:36.789Z,14.30
2022-10-23T10:22:20.518Z,14.40
2022-10-23T10:28:28.471Z,14.50
2022-10-23T10:31:41.658Z,14.60
2022-10-23T10:34:33.226Z,14.70
2022-10-23T10:37:37.659Z,14.70
2022-10-23T10:40:18.826Z,14.80
2022-10-23T10:43:04.007Z,14.80
2022-10-23T10:45:38.116Z,14.90
2022-10-23T10:48:49.525Z,15.00
2022-10-23T10:51:28.444Z,15.00
2022-10-23T10:54:20.354Z,15.10
2022-10-23T10:56:48.361Z,15.20
2022-10-23T10:59:42.198Z,15.20
2022-10-23T11:02:46.342Z,15.30
2022-10-23T11:05:35.329Z,15.40
2022-10-23T11:08:02.304Z,15.50
2022-10-23T11:10:31.317Z,15.50
2022-10-23T11:12:58.776Z,15.50
2022-10-23T11:15:34.618Z,15.60
2022-10-23T11:18:06.417Z,15.60
2022-10-23T11:21:18.474Z,15.60
2022-10-23T11:24:06.083Z,15.70
2022-10-23T11:26:36.107Z,15.80
2022-10-23T11:29:25.316Z,15.80
2022-10-23T11:32:18.471Z,15.90
2022-10-23T11:35:06.241Z,15.90
2022-10-23T11:37:34.037Z,16.00
2022-10-23T11:40:06.827Z,16.00
2022-10-23T11:42:47.647Z,16.10
2022-10-23T11:45:34.098Z,16.10
2022-10-23T11:48:05.387Z,16.20
2022-10-23T11:50:52.701Z,16.20
2022-10-23T11:53:31.885Z,16.30
2022-10-23T11:56:21.878Z,16.30
2022-10-23T11:58:59.408Z,16.30
2022-10-23T12:01:40.349Z,16.40
2022-10-23T12:04:22.357Z,16.40
2022-10-23T12:07:01.345Z,16.40
2022-10-23T12:09:45.881Z,16.40
2022-10-23T12:12:13.086Z,16.40
2022-10-23T12:14:51.050Z,16.40
2022-10-23T12:17:33.004Z,16.40
2022-10-23T12:20:12.298Z,16.50
2022-10-23T12:23:03.038Z,16.50
2022-10-23T12:25:39.176Z,16.60
2022-10-23T12:28:40.337Z,16.60
2022-10-23T12:31:19.545Z,16.60
2022-10-23T12:33:48.246Z,16.60
2022-10-23T12:36:44.919Z,16.60
2022-10-23T12:39:28.183Z,16.60
2022-10-23T12:41:55.970Z,16.60
2022-10-23T12:44:25.581Z,16.70
2022-10-23T12:47:00.192Z,16.70
2022-10-23T12:49:31.911Z,16.70
2022-10-23T12:52:07.174Z,16.70
2022-10-23T12:54:39.515Z,16.70
2022-10-23T12:57:26.157Z,16.70
2022-10-23T13:00:03.508Z,16.70
2022-10-23T13:02:32.270Z,16.70
2022-10-23T13:05:03.178Z,16.70
2022-10-23T13:07:34.062Z,16.70
2022-10-23T13:10:03.043Z,16.70
2022-10-23T13:12:33.299Z,16.70
2022-10-23T13:15:17.247Z,16.70
2022-10-23T13:18:00.211Z,16.80
2022-10-23T13:20:39.738Z,16.80
2022-10-23T13:23:20.733Z,16.80
2022-10-23T13:26:21.679Z,16.80
2022-10-23T13:28:49.171Z,16.80
2022-10-23T13:31:21.324Z,16.80
2022-10-23T13:34:05.673Z,16.80
2022-10-23T13:36:37.042Z,16.90
2022-10-23T13:39:10.268Z,16.80
2022-10-23T13:41:41.691Z,16.90
2022-10-23T13:44:12.760Z,16.90
2022-10-23T13:46:40.380Z,16.90
2022-10-23T13:49:07.652Z,16.90
2022-10-23T13:51:42.897Z,17.00
2022-10-23T13:54:15.836Z,16.90
2022-10-23T13:56:43.183Z,16.90
2022-10-23T13:59:14.150Z,16.90
2022-10-23T14:01:43.597Z,16.90
2022-10-23T14:04:12.302Z,16.90
2022-10-23T14:06:40.017Z,16.80
2022-10-23T14:09:13.362Z,16.90
2022-10-23T14:11:41.028Z,16.80
2022-10-23T14:14:08.573Z,16.80
2022-10-23T14:16:36.021Z,16.80
2022-10-23T14:19:03.201Z,16.80
2022-10-23T14:21:30.493Z,16.80
2022-10-23T14:23:58.328Z,16.80
2022-10-23T14:26:30.557Z,16.80
2022-10-23T14:29:02.382Z,16.80
2022-10-23T14:31:34.393Z,16.80
2022-10-23T14:34:02.168Z,16.80
2022-10-23T14:36:38.534Z,16.80
2022-10-23T14:39:17.634Z,16.80
2022-10-23T14:41:46.249Z,16.80
2022-10-23T14:44:13.985Z,16.70
2022-10-23T14:46:41.145Z,16.70
2022-10-23T14:49:08.470Z,16.70
2022-10-23T14:51:35.744Z,16.70
2022-10-23T14:54:05.633Z,16.70
2022-10-23T14:56:35.919Z,16.70
2022-10-23T14:59:03.970Z,16.60
2022-10-23T15:01:33.396Z,16.60
2022-10-23T15:04:00.837Z,16.60
2022-10-23T15:06:28.124Z,16.50
2022-10-23T15:08:57.218Z,16.50
2022-10-23T15:11:26.027Z,16.50
2022-10-23T15:13:55.442Z,16.50
2022-10-23T15:16:24.320Z,16.50
2022-10-23T15:18:52.193Z,16.50
2022-10-23T15:21:19.439Z,16.40
2022-10-23T15:23:47.503Z,16.50
2022-10-23T15:26:21.119Z,16.50
2022-10-23T15:28:59.078Z,16.40
2022-10-23T15:31:39.408Z,16.40
2022-10-23T15:34:08.169Z,16.40
2022-10-23T15:36:35.687Z,16.30
2022-10-23T15:39:07.449Z,16.30
2022-10-23T15:41:36.339Z,16.30
2022-10-23T15:44:04.754Z,16.30
2022-10-23T15:46:32.514Z,16.30
2022-10-23T15:48:59.815Z,16.30
2022-10-23T15:51:27.079Z,16.20
2022-10-23T15:53:55.044Z,16.20
2022-10-23T15:56:22.145Z,16.20
2022-10-23T15:58:49.416Z,16.10
2022-10-23T16:01:17.045Z,16.10
2022-10-23T16:03:45.327Z,16.10
2022-10-23T16:06:14.360Z,16.00
2022-10-23T16:08:44.234Z,16.00
2022-10-23T16:11:19.121Z,16.00
2022-10-23T16:13:48.025Z,16.00
2022-10-23T16:16:15.931Z,15.90
2022-10-23T16:18:44.990Z,15.90
2022-10-23T16:21:22.523Z,15.90
2022-10-23T16:23:51.351Z,15.90
2022-10-23T16:26:23.184Z,15.80
2022-10-23T16:29:06.292Z,15.80
2022-10-23T16:31:33.723Z,15.70
2022-10-23T16:34:02.786Z,15.70
2022-10-23T16:36:30.629Z,15.70
2022-10-23T16:38:58.031Z,15.60
2022-10-23T16:41:25.309Z,15.60
2022-10-23T16:43:52.632Z,15.60
2022-10-23T16:46:22.260Z,15.60
2022-10-23T16:48:51.625Z,15.60
2022-10-23T16:51:24.337Z,15.60
2022-10-23T16:53:52.016Z,15.60
2022-10-23T16:56:21.725Z,15.60
2022-10-23T16:58:50.019Z,15.60
2022-10-23T17:01:23.728Z,15.60
2022-10-23T17:03:53.012Z,15.60
2022-10-23T17:06:25.593Z,15.60
2022-10-23T17:08:54.295Z,15.50
2022-10-23T17:11:22.672Z,15.60
2022-10-23T17:13:59.408Z,15.50
2022-10-23T17:16:40.305Z,15.60
2022-10-23T17:19:20.851Z,15.50
2022-10-23T17:21:55.541Z,15.50
2022-10-23T17:24:23.406Z,15.50
2022-10-23T17:26:50.813Z,15.50
2022-10-23T17:29:18.850Z,15.50
2022-10-23T17:31:49.971Z,15.40
2022-10-23T17:34:20.853Z,15.40
2022-10-23T17:36:51.257Z,15.40
2022-10-23T17:39:21.895Z,15.40
2022-10-23T17:41:49.735Z,15.40
2022-10-23T17:44:17.718Z,15.40
2022-10-23T17:46:45.074Z,15.40
2022-10-23T17:49:13.032Z,15.40
2022-10-23T17:51:42.056Z,15.40
2022-10-23T17:54:12.341Z,15.40
2022-10-23T17:56:41.114Z,15.40
2022-10-23T17:59:13.909Z,15.40
2022-10-23T18:01:42.921Z,15.30
2022-10-23T18:04:12.255Z,15.30
2022-10-23T18:06:48.583Z,15.30
2022-10-23T18:09:16.280Z,15.30
2022-10-23T18:11:48.047Z,15.30
2022-10-23T18:14:17.676Z,15.30
2022-10-23T18:16:46.221Z,15.30
2022-10-23T18:19:15.373Z,15.30
2022-10-23T18:21:42.453Z,15.30
2022-10-23T18:24:10.414Z,15.30
2022-10-23T18:26:40.272Z,15.30
2022-10-23T18:29:09.654Z,15.20
2022-10-23T18:31:38.336Z,15.30
2022-10-23T18:34:27.132Z,15.30
2022-10-23T18:36:55.724Z,15.30
2022-10-23T18:39:25.591Z,15.20
2022-10-23T18:41:55.938Z,15.20
2022-10-23T18:44:24.827Z,15.20
2022-10-23T18:46:55.585Z,15.20
2022-10-23T18:49:23.497Z,15.20
2022-10-23T18:51:51.472Z,15.20
2022-10-23T18:54:20.799Z,15.10
2022-10-23T18:56:48.548Z,15.10
2022-10-23T18:59:19.389Z,15.10
2022-10-23T19:01:46.921Z,15.10
2022-10-23T19:04:18.682Z,15.10
2022-10-23T19:06:47.648Z,15.10
2022-10-23T19:09:15.944Z,15.10
2022-10-23T19:11:43.909Z,15.00
2022-10-23T19:14:12.002Z,15.00
2022-10-23T19:16:57.636Z,15.00
2022-10-23T19:19:31.257Z,15.00
2022-10-23T19:21:59.192Z,14.90
2022-10-23T19:24:32.451Z,14.90
2022-10-23T19:27:02.060Z,14.90
2022-10-23T19:29:30.167Z,14.90
2022-10-23T19:31:57.982Z,14.90
2022-10-23T19:34:25.648Z,14.90
2022-10-23T19:36:55.140Z,14.90
2022-10-23T19:39:23.204Z,14.90
2022-10-23T19:41:52.956Z,14.80
2022-10-23T19:44:20.960Z,14.80
2022-10-23T19:46:49.077Z,14.80
2022-10-23T19:49:22.255Z,14.80
2022-10-23T19:51:51.501Z,14.80
2022-10-23T19:54:20.557Z,14.80
2022-10-23T19:56:49.027Z,14.80
2022-10-23T19:59:16.625Z,14.70
2022-10-23T20:01:49.037Z,14.70
2022-10-23T20:04:20.098Z,14.70
2022-10-23T20:06:47.710Z,14.70
2022-10-23T20:09:15.224Z,14.70
2022-10-23T20:11:43.724Z,14.70
2022-10-23T20:14:11.069Z,14.60
2022-10-23T20:16:39.991Z,14.60
2022-10-23T20:19:11.473Z,14.60
2022-10-23T20:21:40.711Z,14.60
2022-10-23T20:24:10.089Z,14.60
2022-10-23T20:26:41.551Z,14.60
2022-10-23T20:29:10.549Z,14.60
2022-10-23T20:31:39.834Z,14.60
2022-10-23T20:34:14.081Z,14.50
2022-10-23T20:36:46.895Z,14.50
2022-10-23T20:39:25.814Z,14.50
2022-10-23T20:41:55.719Z,14.50
2022-10-23T20:44:23.942Z,14.50
2022-10-23T20:46:52.312Z,14.50
2022-10-23T20:49:19.595Z,14.60
2022-10-23T20:51:54.946Z,14.50
2022-10-23T20:54:25.038Z,14.50
2022-10-23T20:56:52.429Z,14.50
2022-10-23T20:59:19.866Z,14.40
2022-10-23T21:01:50.354Z,14.40
2022-10-23T21:04:22.970Z,14.40
2022-10-23T21:07:09.571Z,14.50
2022-10-23T21:09:38.226Z,14.50
2022-10-23T21:12:07.012Z,14.50
2022-10-23T21:14:35.649Z,14.50
2022-10-23T21:17:05.136Z,14.50
2022-10-23T21:19:33.160Z,14.50
2022-10-23T21:22:00.376Z,14.50
2022-10-23T21:24:27.869Z,14.50
2022-10-23T21:26:55.005Z,14.50
2022-10-23T21:29:22.127Z,14.50
2022-10-23T21:31:57.470Z,14.50
2022-10-23T21:34:25.013Z,14.50
2022-10-23T21:37:13.409Z,14.50
2022-10-23T21:39:40.273Z,14.50
2022-10-23T21:42:08.111Z,14.50
2022-10-23T21:44:35.706Z,14.50
2022-10-23T21:47:02.930Z,14.50
2022-10-23T21:49:30.540Z,14.50
2022-10-23T21:51:57.808Z,14.50
2022-10-23T21:54:26.347Z,14.50
2022-10-23T21:56:54.169Z,14.50
2022-10-23T21:59:25.786Z,14.50
2022-10-23T22:01:55.390Z,14.50
2022-10-23T22:04:25.969Z,14.50
2022-10-23T22:06:56.134Z,14.50
2022-10-23T22:09:23.822Z,14.50
2022-10-23T22:11:52.275Z,14.50
2022-10-23T22:14:20.040Z,14.50
2022-10-23T22:16:48.124Z,14.50
2022-10-23T22:19:17.931Z,14.50
2022-10-23T22:21:45.865Z,14.40
2022-10-23T22:24:13.197Z,14.40
2022-10-23T22:26:44.261Z,14.40
2022-10-23T22:29:14.886Z,14.50
2022-10-23T22:31:45.488Z,14.40
2022-10-23T22:34:28.795Z,14.40
2022-10-23T22:37:09.796Z,14.40
2022-10-23T22:39:37.398Z,14.40
2022-10-23T22:42:06.066Z,14.40
2022-10-23T22:44:33.330Z,14.40
2022-10-23T22:47:00.650Z,14.40
2022-10-23T22:49:28.024Z,14.30
2022-10-23T22:51:55.242Z,14.30
2022-10-23T22:54:22.918Z,14.30
2022-10-23T22:56:50.166Z,14.30
2022-10-23T22:59:17.381Z,14.30
2022-10-23T23:01:47.758Z,14.30
2022-10-23T23:07:10.701Z,14.30
2022-10-23T23:09:40.115Z,14.30
2022-10-23T23:12:09.017Z,14.40
2022-10-23T23:14:36.243Z,14.30
2022-10-23T23:17:04.415Z,14.40
2022-10-23T23:19:31.802Z,14.30
2022-10-23T23:22:00.136Z,14.30
2022-10-23T23:24:27.940Z,14.30
2022-10-23T23:26:55.342Z,14.30
2022-10-23T23:29:22.525Z,14.30
2022-10-23T23:31:50.077Z,14.30
2022-10-23T23:34:17.430Z,14.20
2022-10-23T23:36:45.396Z,14.20
2022-10-23T23:39:13.001Z,14.20
2022-10-23T23:41:40.272Z,14.20
2022-10-23T23:44:08.930Z,14.20
2022-10-23T23:46:36.270Z,14.20
2022-10-23T23:49:03.681Z,14.30
2022-10-23T23:51:30.899Z,14.20
2022-10-23T23:53:58.370Z,14.20
2022-10-23T23:56:25.690Z,14.20
2022-10-23T23:58:52.749Z,14.20
